sensor_id;sensor_type;location;lat;lon;timestamp;pressure;altitude;pressure_sealevel;temperature;humidity
11648;BME280;5880;52.342;9.662;2022-09-27T00:01:11;98702.00;;;16.07;54.11
11648;BME280;5880;52.342;9.662;2022-09-27T00:03:38;98694.34;;;16.03;54.20
11648;BME280;5880;52.342;9.662;2022-09-27T00:06:27;98698.13;;;16.08;54.14
11648;BME280;5880;52.342;9.662;2022-09-27T00:08:54;98697.94;;;16.04;54.40
11648;BME280;5880;52.342;9.662;2022-09-27T00:11:35;98693.25;;;16.04;54.41
11648;BME280;5880;52.342;9.662;2022-09-27T00:14:03;98692.94;;;16.06;54.59
11648;BME280;5880;52.342;9.662;2022-09-27T00:16:32;98687.44;;;16.06;54.35
11648;BME280;5880;52.342;9.662;2022-09-27T00:19:05;98682.53;;;16.03;54.47
11648;BME280;5880;52.342;9.662;2022-09-27T00:21:31;98684.28;;;15.99;54.53
11648;BME280;5880;52.342;9.662;2022-09-27T00:23:58;98696.00;;;16.04;54.59
11648;BME280;5880;52.342;9.662;2022-09-27T00:26:24;98698.75;;;16.04;54.65
11648;BME280;5880;52.342;9.662;2022-09-27T00:28:51;98696.81;;;16.05;54.72
11648;BME280;5880;52.342;9.662;2022-09-27T00:31:25;98681.22;;;16.00;54.57
11648;BME280;5880;52.342;9.662;2022-09-27T00:33:54;98683.69;;;16.02;54.70
11648;BME280;5880;52.342;9.662;2022-09-27T00:36:22;98668.41;;;15.96;54.79
11648;BME280;5880;52.342;9.662;2022-09-27T00:38:48;98681.41;;;16.04;54.59
11648;BME280;5880;52.342;9.662;2022-09-27T00:41:24;98679.63;;;15.99;54.63
11648;BME280;5880;52.342;9.662;2022-09-27T00:43:58;98686.44;;;16.02;54.78
11648;BME280;5880;52.342;9.662;2022-09-27T00:46:47;98675.84;;;15.95;54.85
11648;BME280;5880;52.342;9.662;2022-09-27T00:49:23;98681.53;;;15.99;54.73
11648;BME280;5880;52.342;9.662;2022-09-27T00:51:57;98676.34;;;15.97;54.79
11648;BME280;5880;52.342;9.662;2022-09-27T00:54:27;98657.66;;;15.86;54.79
11648;BME280;5880;52.342;9.662;2022-09-27T00:56:54;98668.69;;;15.94;54.88
11648;BME280;5880;52.342;9.662;2022-09-27T00:59:38;98653.94;;;15.90;54.76
11648;BME280;5880;52.342;9.662;2022-09-27T01:02:06;98666.66;;;16.00;54.88
11648;BME280;5880;52.342;9.662;2022-09-27T01:04:33;98669.09;;;16.01;54.85
11648;BME280;5880;52.342;9.662;2022-09-27T01:07:01;98657.22;;;15.92;54.87
11648;BME280;5880;52.342;9.662;2022-09-27T01:09:27;98673.47;;;16.02;54.82
11648;BME280;5880;52.342;9.662;2022-09-27T01:17:43;98677.53;;;16.05;54.91
11648;BME280;5880;52.342;9.662;2022-09-27T01:23:42;98667.66;;;16.04;55.02
11648;BME280;5880;52.342;9.662;2022-09-27T01:27:00;98661.63;;;16.02;54.88
11648;BME280;5880;52.342;9.662;2022-09-27T01:30:11;98662.75;;;16.01;54.79
11648;BME280;5880;52.342;9.662;2022-09-27T01:42:36;98655.97;;;16.07;55.04
11648;BME280;5880;52.342;9.662;2022-09-27T01:45:24;98658.75;;;16.07;54.83
11648;BME280;5880;52.342;9.662;2022-09-27T01:48:06;98648.53;;;16.08;55.21
11648;BME280;5880;52.342;9.662;2022-09-27T01:50:49;98658.09;;;16.10;55.05
11648;BME280;5880;52.342;9.662;2022-09-27T01:53:30;98650.63;;;16.11;55.19
11648;BME280;5880;52.342;9.662;2022-09-27T01:56:03;98649.53;;;16.12;55.07
11648;BME280;5880;52.342;9.662;2022-09-27T01:58:45;98647.28;;;16.14;55.13
11648;BME280;5880;52.342;9.662;2022-09-27T02:01:17;98640.94;;;16.13;55.15
11648;BME280;5880;52.342;9.662;2022-09-27T02:03:49;98642.06;;;16.12;55.42
11648;BME280;5880;52.342;9.662;2022-09-27T02:06:22;98642.72;;;16.09;55.36
11648;BME280;5880;52.342;9.662;2022-09-27T02:09:09;98631.69;;;16.09;55.25
11648;BME280;5880;52.342;9.662;2022-09-27T02:11:44;98628.13;;;16.09;55.45
11648;BME280;5880;52.342;9.662;2022-09-27T02:14:27;98646.47;;;16.13;55.25
11648;BME280;5880;52.342;9.662;2022-09-27T02:20:17;98635.25;;;16.10;55.28
11648;BME280;5880;52.342;9.662;2022-09-27T02:23:08;98624.06;;;16.06;55.40
11648;BME280;5880;52.342;9.662;2022-09-27T02:26:00;98630.88;;;16.09;55.29
11648;BME280;5880;52.342;9.662;2022-09-27T02:28:57;98620.97;;;16.08;55.24
11648;BME280;5880;52.342;9.662;2022-09-27T02:31:25;98619.16;;;16.03;55.50
11648;BME280;5880;52.342;9.662;2022-09-27T02:33:58;98621.97;;;16.12;55.49
11648;BME280;5880;52.342;9.662;2022-09-27T02:36:27;98624.72;;;16.12;55.48
11648;BME280;5880;52.342;9.662;2022-09-27T02:38:53;98618.72;;;16.10;55.47
11648;BME280;5880;52.342;9.662;2022-09-27T02:41:21;98621.31;;;16.15;55.40
11648;BME280;5880;52.342;9.662;2022-09-27T02:43:53;98619.56;;;16.19;55.38
11648;BME280;5880;52.342;9.662;2022-09-27T02:46:46;98622.97;;;16.16;55.56
11648;BME280;5880;52.342;9.662;2022-09-27T02:52:28;98612.25;;;16.14;55.60
11648;BME280;5880;52.342;9.662;2022-09-27T03:06:45;98625.53;;;16.12;55.70
11648;BME280;5880;52.342;9.662;2022-09-27T03:09:19;98620.22;;;16.16;55.81
11648;BME280;5880;52.342;9.662;2022-09-27T03:11:45;98621.66;;;16.13;55.68
11648;BME280;5880;52.342;9.662;2022-09-27T03:14:12;98625.38;;;16.17;55.64
11648;BME280;5880;52.342;9.662;2022-09-27T03:16:38;98620.72;;;16.18;55.78
11648;BME280;5880;52.342;9.662;2022-09-27T03:19:04;98606.56;;;16.11;55.76
11648;BME280;5880;52.342;9.662;2022-09-27T03:21:29;98623.63;;;16.21;55.95
11648;BME280;5880;52.342;9.662;2022-09-27T03:23:55;98609.19;;;16.16;55.75
11648;BME280;5880;52.342;9.662;2022-09-27T03:26:21;98624.63;;;16.25;55.97
11648;BME280;5880;52.342;9.662;2022-09-27T03:28:48;98613.25;;;16.18;56.01
11648;BME280;5880;52.342;9.662;2022-09-27T03:31:14;98612.09;;;16.19;56.05
11648;BME280;5880;52.342;9.662;2022-09-27T03:33:40;98618.31;;;16.25;55.84
11648;BME280;5880;52.342;9.662;2022-09-27T03:36:06;98612.09;;;16.19;55.79
11648;BME280;5880;52.342;9.662;2022-09-27T03:38:32;98617.31;;;16.21;55.82
11648;BME280;5880;52.342;9.662;2022-09-27T03:40:58;98622.81;;;16.21;56.09
11648;BME280;5880;52.342;9.662;2022-09-27T03:43:24;98622.50;;;16.22;56.05
11648;BME280;5880;52.342;9.662;2022-09-27T03:45:50;98626.06;;;16.23;56.07
11648;BME280;5880;52.342;9.662;2022-09-27T03:48:15;98622.97;;;16.24;56.14
11648;BME280;5880;52.342;9.662;2022-09-27T03:50:41;98617.31;;;16.21;56.02
11648;BME280;5880;52.342;9.662;2022-09-27T03:53:07;98622.19;;;16.24;56.07
11648;BME280;5880;52.342;9.662;2022-09-27T03:55:33;98619.25;;;16.20;56.24
11648;BME280;5880;52.342;9.662;2022-09-27T03:58:00;98620.72;;;16.18;56.06
11648;BME280;5880;52.342;9.662;2022-09-27T04:00:26;98625.28;;;16.22;56.12
11648;BME280;5880;52.342;9.662;2022-09-27T04:02:53;98626.38;;;16.21;56.18
11648;BME280;5880;52.342;9.662;2022-09-27T04:05:18;98634.97;;;16.20;56.08
11648;BME280;5880;52.342;9.662;2022-09-27T04:07:48;98621.81;;;16.17;56.32
11648;BME280;5880;52.342;9.662;2022-09-27T04:10:14;98629.28;;;16.16;56.17
11648;BME280;5880;52.342;9.662;2022-09-27T04:12:41;98622.47;;;16.14;56.04
11648;BME280;5880;52.342;9.662;2022-09-27T04:15:07;98625.53;;;16.12;56.22
11648;BME280;5880;52.342;9.662;2022-09-27T04:17:34;98624.22;;;16.10;56.27
11648;BME280;5880;52.342;9.662;2022-09-27T04:20:00;98619.53;;;16.10;56.27
11648;BME280;5880;52.342;9.662;2022-09-27T04:22:28;98631.69;;;16.09;56.24
11648;BME280;5880;52.342;9.662;2022-09-27T04:24:54;98625.97;;;16.06;56.24
11648;BME280;5880;52.342;9.662;2022-09-27T04:27:20;98624.69;;;16.03;56.28
11648;BME280;5880;52.342;9.662;2022-09-27T04:29:47;98629.88;;;16.04;56.29
11648;BME280;5880;52.342;9.662;2022-09-27T04:32:13;98633.94;;;16.07;56.19
11648;BME280;5880;52.342;9.662;2022-09-27T04:34:39;98633.94;;;16.07;56.26
11648;BME280;5880;52.342;9.662;2022-09-27T04:37:26;98632.78;;;15.99;56.16
11648;BME280;5880;52.342;9.662;2022-09-27T04:39:51;98641.72;;;16.05;56.33
11648;BME280;5880;52.342;9.662;2022-09-27T04:42:17;98641.84;;;16.00;56.38
11648;BME280;5880;52.342;9.662;2022-09-27T04:44:44;98648.34;;;16.04;56.33
11648;BME280;5880;52.342;9.662;2022-09-27T04:47:09;98641.19;;;16.03;56.13
11648;BME280;5880;52.342;9.662;2022-09-27T04:49:36;98648.00;;;15.97;56.25
11648;BME280;5880;52.342;9.662;2022-09-27T04:52:03;98657.75;;;16.03;56.26
11648;BME280;5880;52.342;9.662;2022-09-27T04:54:30;98659.38;;;16.04;56.34
11648;BME280;5880;52.342;9.662;2022-09-27T04:56:56;98660.50;;;16.03;56.18
11648;BME280;5880;52.342;9.662;2022-09-27T04:59:22;98657.25;;;16.01;56.05
11648;BME280;5880;52.342;9.662;2022-09-27T05:01:48;98656.72;;;15.99;56.38
11648;BME280;5880;52.342;9.662;2022-09-27T05:04:15;98646.66;;;15.94;56.16
11648;BME280;5880;52.342;9.662;2022-09-27T05:06:40;98663.88;;;16.00;56.06
11648;BME280;5880;52.342;9.662;2022-09-27T05:09:06;98671.00;;;16.01;56.30
11648;BME280;5880;52.342;9.662;2022-09-27T05:11:32;98658.19;;;15.96;56.20
11648;BME280;5880;52.342;9.662;2022-09-27T05:13:57;98666.66;;;16.00;56.53
11648;BME280;5880;52.342;9.662;2022-09-27T05:16:23;98669.19;;;15.96;56.53
11648;BME280;5880;52.342;9.662;2022-09-27T05:18:49;98671.66;;;15.98;56.43
11648;BME280;5880;52.342;9.662;2022-09-27T05:21:15;98670.19;;;16.00;56.18
11648;BME280;5880;52.342;9.662;2022-09-27T05:23:40;98668.41;;;15.96;56.24
11648;BME280;5880;52.342;9.662;2022-09-27T05:26:07;98676.22;;;16.02;56.32
11648;BME280;5880;52.342;9.662;2022-09-27T05:28:33;98678.16;;;16.02;56.28
11648;BME280;5880;52.342;9.662;2022-09-27T05:31:01;98682.03;;;16.01;56.33
11648;BME280;5880;52.342;9.662;2022-09-27T05:33:27;98684.28;;;15.99;56.31
11648;BME280;5880;52.342;9.662;2022-09-27T05:35:55;98684.28;;;15.99;56.37
11648;BME280;5880;52.342;9.662;2022-09-27T05:38:22;98687.03;;;15.99;56.29
11648;BME280;5880;52.342;9.662;2022-09-27T05:40:47;98688.69;;;16.00;56.24
11648;BME280;5880;52.342;9.662;2022-09-27T05:43:16;98695.00;;;16.00;56.20
11648;BME280;5880;52.342;9.662;2022-09-27T05:45:43;98692.88;;;15.97;56.43
11648;BME280;5880;52.342;9.662;2022-09-27T05:48:09;98700.81;;;15.99;56.35
11648;BME280;5880;52.342;9.662;2022-09-27T05:50:37;98701.94;;;15.98;56.46
11648;BME280;5880;52.342;9.662;2022-09-27T05:53:03;98687.19;;;15.94;56.35
11648;BME280;5880;52.342;9.662;2022-09-27T05:55:28;98691.88;;;15.93;56.30
11648;BME280;5880;52.342;9.662;2022-09-27T05:58:02;98700.66;;;15.95;56.27
11648;BME280;5880;52.342;9.662;2022-09-27T06:00:32;98701.44;;;15.96;56.30
11648;BME280;5880;52.342;9.662;2022-09-27T06:03:02;98698.19;;;15.94;56.38
11648;BME280;5880;52.342;9.662;2022-09-27T06:05:33;98705.66;;;15.93;56.55
11648;BME280;5880;52.342;9.662;2022-09-27T06:08:03;98715.06;;;15.92;56.41
11648;BME280;5880;52.342;9.662;2022-09-27T06:10:30;98712.09;;;15.89;56.38
11648;BME280;5880;52.342;9.662;2022-09-27T06:13:04;98704.47;;;15.86;56.53
11648;BME280;5880;52.342;9.662;2022-09-27T06:15:33;98710.28;;;15.84;56.56
11648;BME280;5880;52.342;9.662;2022-09-27T06:18:08;98706.03;;;15.78;56.39
11648;BME280;5880;52.342;9.662;2022-09-27T06:20:36;98709.41;;;15.75;56.50
11648;BME280;5880;52.342;9.662;2022-09-27T06:23:09;98715.25;;;15.73;56.64
11648;BME280;5880;52.342;9.662;2022-09-27T06:25:35;98712.56;;;15.68;56.41
11648;BME280;5880;52.342;9.662;2022-09-27T06:28:03;98722.16;;;15.71;56.54
11648;BME280;5880;52.342;9.662;2022-09-27T06:30:30;98711.38;;;15.60;56.73
11648;BME280;5880;52.342;9.662;2022-09-27T06:33:01;98737.69;;;15.67;56.77
11648;BME280;5880;52.342;9.662;2022-09-27T06:35:28;98722.41;;;15.60;56.79
11648;BME280;5880;52.342;9.662;2022-09-27T06:37:55;98727.59;;;15.62;56.76
11648;BME280;5880;52.342;9.662;2022-09-27T06:40:22;98731.47;;;15.61;56.87
11648;BME280;5880;52.342;9.662;2022-09-27T06:42:52;98730.16;;;15.58;57.03
11648;BME280;5880;52.342;9.662;2022-09-27T06:45:17;98742.97;;;15.63;57.08
11648;BME280;5880;52.342;9.662;2022-09-27T06:47:43;98738.63;;;15.62;56.93
11648;BME280;5880;52.342;9.662;2022-09-27T06:50:09;98733.22;;;15.57;57.20
11648;BME280;5880;52.342;9.662;2022-09-27T06:52:35;98740.84;;;15.60;56.97
11648;BME280;5880;52.342;9.662;2022-09-27T06:55:03;98747.03;;;15.66;57.11
11648;BME280;5880;52.342;9.662;2022-09-27T06:57:30;98745.22;;;15.61;57.23
11648;BME280;5880;52.342;9.662;2022-09-27T07:00:14;98745.22;;;15.61;57.20
11648;BME280;5880;52.342;9.662;2022-09-27T07:02:52;98750.13;;;15.64;57.11
11648;BME280;5880;52.342;9.662;2022-09-27T07:05:19;98755.63;;;15.64;57.04
11648;BME280;5880;52.342;9.662;2022-09-27T07:07:45;98755.31;;;15.66;57.20
11648;BME280;5880;52.342;9.662;2022-09-27T07:10:13;98755.00;;;15.67;57.14
11648;BME280;5880;52.342;9.662;2022-09-27T07:12:39;98763.28;;;15.67;57.22
11648;BME280;5880;52.342;9.662;2022-09-27T07:15:06;98767.63;;;15.68;57.09
11648;BME280;5880;52.342;9.662;2022-09-27T07:17:32;98763.47;;;15.71;57.27
11648;BME280;5880;52.342;9.662;2022-09-27T07:19:57;98776.13;;;15.72;57.11
11648;BME280;5880;52.342;9.662;2022-09-27T07:22:23;98781.94;;;15.70;57.16
11648;BME280;5880;52.342;9.662;2022-09-27T07:24:48;98788.75;;;15.73;57.22
11648;BME280;5880;52.342;9.662;2022-09-27T07:27:14;98788.97;;;15.76;57.32
11648;BME280;5880;52.342;9.662;2022-09-27T07:29:40;98791.84;;;15.71;56.85
11648;BME280;5880;52.342;9.662;2022-09-27T07:32:06;98798.34;;;15.75;57.10
11648;BME280;5880;52.342;9.662;2022-09-27T07:34:35;98775.38;;;15.66;56.83
11648;BME280;5880;52.342;9.662;2022-09-27T07:37:01;98786.84;;;15.73;57.07
11648;BME280;5880;52.342;9.662;2022-09-27T07:39:30;98799.34;;;15.79;57.09
11648;BME280;5880;52.342;9.662;2022-09-27T07:41:57;98809.56;;;15.79;57.06
11648;BME280;5880;52.342;9.662;2022-09-27T07:44:23;98815.06;;;15.79;57.05
11648;BME280;5880;52.342;9.662;2022-09-27T07:46:48;98818.94;;;15.78;56.92
11648;BME280;5880;52.342;9.662;2022-09-27T07:49:14;98818.94;;;15.78;56.97
11648;BME280;5880;52.342;9.662;2022-09-27T07:51:40;98810.00;;;15.72;57.06
11648;BME280;5880;52.342;9.662;2022-09-27T07:54:05;98813.88;;;15.71;56.83
11648;BME280;5880;52.342;9.662;2022-09-27T07:56:31;98822.53;;;15.78;57.18
11648;BME280;5880;52.342;9.662;2022-09-27T07:58:57;98819.28;;;15.76;56.89
11648;BME280;5880;52.342;9.662;2022-09-27T08:01:23;98828.84;;;15.79;56.98
11648;BME280;5880;52.342;9.662;2022-09-27T08:03:49;98819.56;;;15.75;57.07
11648;BME280;5880;52.342;9.662;2022-09-27T08:06:15;98830.78;;;15.78;56.81
11648;BME280;5880;52.342;9.662;2022-09-27T08:08:42;98833.66;;;15.73;56.98
11648;BME280;5880;52.342;9.662;2022-09-27T08:11:16;98847.50;;;15.82;56.69
11648;BME280;5880;52.342;9.662;2022-09-27T08:13:44;98839.34;;;15.77;57.00
11648;BME280;5880;52.342;9.662;2022-09-27T08:16:11;98849.75;;;15.80;56.88
11648;BME280;5880;52.342;9.662;2022-09-27T08:18:38;98850.88;;;15.79;56.94
11648;BME280;5880;52.342;9.662;2022-09-27T08:21:04;98844.69;;;15.73;56.85
11648;BME280;5880;52.342;9.662;2022-09-27T08:23:30;98860.47;;;15.81;56.94
11648;BME280;5880;52.342;9.662;2022-09-27T08:25:56;98859.31;;;15.82;56.86
11648;BME280;5880;52.342;9.662;2022-09-27T08:28:25;98868.41;;;15.83;56.82
11648;BME280;5880;52.342;9.662;2022-09-27T08:30:51;98860.56;;;15.76;56.84
11648;BME280;5880;52.342;9.662;2022-09-27T08:33:18;98874.75;;;15.83;56.88
11648;BME280;5880;52.342;9.662;2022-09-27T08:35:44;98861.69;;;15.75;57.06
11648;BME280;5880;52.342;9.662;2022-09-27T08:38:10;98870.84;;;15.85;57.12
11648;BME280;5880;52.342;9.662;2022-09-27T08:40:55;98879.50;;;15.92;57.16
11648;BME280;5880;52.342;9.662;2022-09-27T08:46:57;98876.66;;;15.97;57.43
11648;BME280;5880;52.342;9.662;2022-09-27T08:49:40;98870.69;;;16.03;57.75
11648;BME280;5880;52.342;9.662;2022-09-27T08:52:38;98873.84;;;16.11;57.69
11648;BME280;5880;52.342;9.662;2022-09-27T08:57:55;98891.75;;;16.22;57.92
11648;BME280;5880;52.342;9.662;2022-09-27T09:00:21;98889.63;;;16.19;57.75
11648;BME280;5880;52.342;9.662;2022-09-27T09:02:48;98903.50;;;16.28;57.55
11648;BME280;5880;52.342;9.662;2022-09-27T09:05:26;98893.47;;;16.32;57.45
11648;BME280;5880;52.342;9.662;2022-09-27T09:08:29;98897.88;;;16.33;57.62
11648;BME280;5880;52.342;9.662;2022-09-27T09:11:43;98906.31;;;16.36;57.74
11648;BME280;5880;52.342;9.662;2022-09-27T09:14:43;98894.97;;;16.38;58.08
11648;BME280;5880;52.342;9.662;2022-09-27T09:25:59;98916.69;;;16.53;57.25
11648;BME280;5880;52.342;9.662;2022-09-27T09:29:13;98917.78;;;16.52;57.11
11648;BME280;5880;52.342;9.662;2022-09-27T09:32:29;98913.72;;;16.50;56.88
11648;BME280;5880;52.342;9.662;2022-09-27T09:34:58;98906.09;;;16.46;57.20
11648;BME280;5880;52.342;9.662;2022-09-27T09:37:38;98909.84;;;16.51;57.27
11648;BME280;5880;52.342;9.662;2022-09-27T09:40:24;98906.88;;;16.47;57.25
11648;BME280;5880;52.342;9.662;2022-09-27T09:43:11;98902.25;;;16.56;57.40
11648;BME280;5880;52.342;9.662;2022-09-27T09:45:45;98909.72;;;16.56;57.49
11648;BME280;5880;52.342;9.662;2022-09-27T09:48:48;98903.78;;;16.62;57.60
11648;BME280;5880;52.342;9.662;2022-09-27T09:51:22;98893.03;;;16.61;57.61
11648;BME280;5880;52.342;9.662;2022-09-27T09:54:31;98907.72;;;16.70;57.68
11648;BME280;5880;52.342;9.662;2022-09-27T09:57:12;98902.56;;;16.77;57.82
11648;BME280;5880;52.342;9.662;2022-09-27T09:59:46;98888.97;;;16.81;57.67
11648;BME280;5880;52.342;9.662;2022-09-27T10:02:31;98895.41;;;16.99;58.12
11648;BME280;5880;52.342;9.662;2022-09-27T10:04:59;98898.13;;;17.21;58.66
11648;BME280;5880;52.342;9.662;2022-09-27T10:07:26;98886.50;;;17.50;58.48
11648;BME280;5880;52.342;9.662;2022-09-27T10:09:59;98884.31;;;17.79;57.92
11648;BME280;5880;52.342;9.662;2022-09-27T10:12:25;98886.47;;;17.90;57.59
11648;BME280;5880;52.342;9.662;2022-09-27T10:14:53;98889.25;;;17.99;57.41
11648;BME280;5880;52.342;9.662;2022-09-27T10:17:25;98886.00;;;18.06;56.97
11648;BME280;5880;52.342;9.662;2022-09-27T10:19:56;98888.44;;;18.07;56.80
11648;BME280;5880;52.342;9.662;2022-09-27T10:22:33;98888.28;;;18.04;56.70
11648;BME280;5880;52.342;9.662;2022-09-27T10:25:09;98889.09;;;18.04;56.62
11648;BME280;5880;52.342;9.662;2022-09-27T10:27:45;98904.56;;;18.05;56.52
11648;BME280;5880;52.342;9.662;2022-09-27T10:30:31;98913.31;;;17.99;56.03
11648;BME280;5880;52.342;9.662;2022-09-27T10:33:16;98919.13;;;17.88;55.63
11648;BME280;5880;52.342;9.662;2022-09-27T10:35:46;98917.63;;;17.73;55.22
11648;BME280;5880;52.342;9.662;2022-09-27T10:38:50;98923.41;;;17.55;54.98
11648;BME280;5880;52.342;9.662;2022-09-27T10:44:27;98929.09;;;17.18;55.03
11648;BME280;5880;52.342;9.662;2022-09-27T10:47:08;98929.22;;;17.04;55.19
11648;BME280;5880;52.342;9.662;2022-09-27T10:49:39;98923.13;;;16.94;55.22
11648;BME280;5880;52.342;9.662;2022-09-27T10:52:15;98909.19;;;16.76;55.42
11648;BME280;5880;52.342;9.662;2022-09-27T10:57:22;98914.69;;;16.76;56.19
11648;BME280;5880;52.342;9.662;2022-09-27T10:59:56;98911.63;;;16.78;56.50
11648;BME280;5880;52.342;9.662;2022-09-27T11:02:35;98904.72;;;16.80;56.82
11648;BME280;5880;52.342;9.662;2022-09-27T11:05:32;98905.72;;;16.84;57.08
11648;BME280;5880;52.342;9.662;2022-09-27T11:08:02;98913.03;;;16.89;57.34
11648;BME280;5880;52.342;9.662;2022-09-27T11:10:31;98918.13;;;16.96;57.41
11648;BME280;5880;52.342;9.662;2022-09-27T11:13:23;98904.38;;;17.04;57.83
11648;BME280;5880;52.342;9.662;2022-09-27T11:19:35;98909.69;;;17.32;58.62
11648;BME280;5880;52.342;9.662;2022-09-27T11:25:36;98920.84;;;17.67;58.56
11648;BME280;5880;52.342;9.662;2022-09-27T11:34:42;98945.44;;;17.77;56.79
11648;BME280;5880;52.342;9.662;2022-09-27T11:37:52;98958.53;;;17.63;56.33
11648;BME280;5880;52.342;9.662;2022-09-27T11:40:36;98967.75;;;17.49;55.39
11648;BME280;5880;52.342;9.662;2022-09-27T11:43:47;98960.81;;;17.29;55.04
11648;BME280;5880;52.342;9.662;2022-09-27T11:46:44;98964.94;;;17.09;54.86
11648;BME280;5880;52.342;9.662;2022-09-27T11:49:18;98957.69;;;16.91;55.06
11648;BME280;5880;52.342;9.662;2022-09-27T11:52:14;98956.91;;;16.77;55.11
11648;BME280;5880;52.342;9.662;2022-09-27T11:57:56;98963.03;;;16.51;55.22
11648;BME280;5880;52.342;9.662;2022-09-27T12:06:49;98992.03;;;16.12;55.26
11648;BME280;5880;52.342;9.662;2022-09-27T12:09:27;98997.75;;;16.02;55.08
11648;BME280;5880;52.342;9.662;2022-09-27T12:12:27;98996.63;;;15.89;55.03
11648;BME280;5880;52.342;9.662;2022-09-27T12:15:04;98996.63;;;15.75;55.00
11648;BME280;5880;52.342;9.662;2022-09-27T12:17:41;98997.63;;;15.66;54.92
11648;BME280;5880;52.342;9.662;2022-09-27T12:20:26;98992.03;;;15.57;54.92
11648;BME280;5880;52.342;9.662;2022-09-27T12:23:22;98988.13;;;15.44;55.13
11648;BME280;5880;52.342;9.662;2022-09-27T12:25:56;98982.44;;;15.40;55.55
11648;BME280;5880;52.342;9.662;2022-09-27T12:28:58;98989.94;;;15.35;55.33
11648;BME280;5880;52.342;9.662;2022-09-27T12:37:23;98993.81;;;15.20;55.65
11648;BME280;5880;52.342;9.662;2022-09-27T12:40:05;98995.75;;;15.19;55.74
11648;BME280;5880;52.342;9.662;2022-09-27T12:42:41;98990.53;;;15.18;55.71
11648;BME280;5880;52.342;9.662;2022-09-27T12:45:22;98996.03;;;15.18;55.70
11648;BME280;5880;52.342;9.662;2022-09-27T12:48:26;98998.00;;;15.17;55.70
11648;BME280;5880;52.342;9.662;2022-09-27T12:51:15;98991.16;;;15.15;56.09
11648;BME280;5880;52.342;9.662;2022-09-27T13:00:17;99001.53;;;15.18;56.05
11648;BME280;5880;52.342;9.662;2022-09-27T13:03:08;99006.94;;;15.23;56.19
11648;BME280;5880;52.342;9.662;2022-09-27T13:09:27;98998.69;;;15.23;56.29
11648;BME280;5880;52.342;9.662;2022-09-27T13:12:11;98993.50;;;15.22;56.32
11648;BME280;5880;52.342;9.662;2022-09-27T13:15:04;98997.28;;;15.26;56.40
11648;BME280;5880;52.342;9.662;2022-09-27T13:17:34;98996.75;;;15.24;56.22
11648;BME280;5880;52.342;9.662;2022-09-27T13:25:53;99003.50;;;15.17;56.56
11648;BME280;5880;52.342;9.662;2022-09-27T13:31:10;99006.94;;;15.23;56.58
11648;BME280;5880;52.342;9.662;2022-09-27T13:33:49;99006.16;;;15.23;56.89
11648;BME280;5880;52.342;9.662;2022-09-27T13:42:01;99012.69;;;15.27;57.01
11648;BME280;5880;52.342;9.662;2022-09-27T13:44:48;99004.44;;;15.27;56.95
11648;BME280;5880;52.342;9.662;2022-09-27T13:47:33;99004.19;;;15.23;56.86
11648;BME280;5880;52.342;9.662;2022-09-27T13:50:24;99003.09;;;15.24;57.15
11648;BME280;5880;52.342;9.662;2022-09-27T13:53:07;99005.53;;;15.26;57.22
11648;BME280;5880;52.342;9.662;2022-09-27T13:55:48;98998.41;;;15.25;57.30
11648;BME280;5880;52.342;9.662;2022-09-27T14:00:48;99002.91;;;15.34;57.46
11648;BME280;5880;52.342;9.662;2022-09-27T14:03:25;99001.09;;;15.44;57.43
11648;BME280;5880;52.342;9.662;2022-09-27T14:05:57;99002.94;;;15.48;57.53
11648;BME280;5880;52.342;9.662;2022-09-27T14:08:48;99004.78;;;15.53;57.48
11648;BME280;5880;52.342;9.662;2022-09-27T14:11:32;99002.53;;;15.55;57.57
11648;BME280;5880;52.342;9.662;2022-09-27T14:14:02;99005.69;;;15.62;57.79
11648;BME280;5880;52.342;9.662;2022-09-27T14:16:33;99009.44;;;15.66;57.55
11648;BME280;5880;52.342;9.662;2022-09-27T14:19:01;99013.84;;;15.67;57.47
11648;BME280;5880;52.342;9.662;2022-09-27T14:21:36;99010.72;;;15.74;57.43
11648;BME280;5880;52.342;9.662;2022-09-27T14:27:14;99014.19;;;15.79;57.15
11648;BME280;5880;52.342;9.662;2022-09-27T14:29:55;99017.97;;;15.83;57.22
11648;BME280;5880;52.342;9.662;2022-09-27T14:32:30;99023.19;;;15.85;57.09
11648;BME280;5880;52.342;9.662;2022-09-27T14:35:19;99026.13;;;15.89;57.04
11648;BME280;5880;52.342;9.662;2022-09-27T14:38:14;99051.22;;;15.87;57.17
11648;BME280;5880;52.342;9.662;2022-09-27T14:41:02;99061.13;;;15.88;56.55
11648;BME280;5880;52.342;9.662;2022-09-27T14:43:29;99067.03;;;15.81;56.44
11648;BME280;5880;52.342;9.662;2022-09-27T14:45:59;99059.16;;;15.75;56.11
11648;BME280;5880;52.342;9.662;2022-09-27T14:48:30;99065.88;;;15.69;55.95
11648;BME280;5880;52.342;9.662;2022-09-27T14:51:03;99058.31;;;15.60;55.84
11648;BME280;5880;52.342;9.662;2022-09-27T14:53:33;99057.91;;;15.53;55.75
11648;BME280;5880;52.342;9.662;2022-09-27T14:56:01;99064.41;;;15.44;55.71
11648;BME280;5880;52.342;9.662;2022-09-27T14:58:28;99046.66;;;15.36;55.59
11648;BME280;5880;52.342;9.662;2022-09-27T15:00:55;99045.38;;;15.28;55.59
11648;BME280;5880;52.342;9.662;2022-09-27T15:03:30;99047.63;;;15.26;55.73
11648;BME280;5880;52.342;9.662;2022-09-27T15:05:58;99049.38;;;15.22;56.04
11648;BME280;5880;52.342;9.662;2022-09-27T15:08:27;99037.84;;;15.20;55.75
11648;BME280;5880;52.342;9.662;2022-09-27T15:10:56;99035.75;;;15.12;55.71
11648;BME280;5880;52.342;9.662;2022-09-27T15:13:24;99049.59;;;15.07;55.65
11648;BME280;5880;52.342;9.662;2022-09-27T15:15:52;99051.84;;;15.05;55.67
11648;BME280;5880;52.342;9.662;2022-09-27T15:18:42;99050.31;;;14.98;55.72
11648;BME280;5880;52.342;9.662;2022-09-27T15:21:33;99039.69;;;14.92;55.93
11648;BME280;5880;52.342;9.662;2022-09-27T15:24:00;99042.00;;;14.85;56.03
11648;BME280;5880;52.342;9.662;2022-09-27T15:26:36;99049.63;;;14.88;55.98
11648;BME280;5880;52.342;9.662;2022-09-27T15:29:16;99040.34;;;14.84;56.11
11648;BME280;5880;52.342;9.662;2022-09-27T15:31:43;99038.72;;;14.83;56.25
11648;BME280;5880;52.342;9.662;2022-09-27T15:34:17;99043.63;;;14.86;56.27
11648;BME280;5880;52.342;9.662;2022-09-27T15:36:50;99043.63;;;14.86;56.29
11648;BME280;5880;52.342;9.662;2022-09-27T15:39:25;99032.69;;;14.81;56.46
11648;BME280;5880;52.342;9.662;2022-09-27T15:42:10;99048.50;;;14.89;56.49